Time;durP1;ratioP1;P1;durP2;ratioP2;P2;SDS_P1;SDS_P2;PMS_P1;PMS_P2;Temp;Humidity;BMP_temperature;BMP_pressure;BME280_temperature;BME280_humidity;BME280_pressure;Samples;Min_cycle;Max_cycle;Signal;HPM_P1;HPM_P2
2023/05/10 00:01:04;;;;;;;;;2.00;1.00;;;;;14.11;100.00;99181.50;5002916;28;47061;-77
2023/05/10 00:03:30;;;;;;;;;1.25;0.00;;;;;14.04;100.00;99164.22;5049348;28;45403;-77
2023/05/10 00:05:55;;;;;;;;;5.00;5.00;;;;;13.98;100.00;99157.47;5021807;28;45413;-77
2023/05/10 00:08:22;;;;;;;;;3.00;3.00;;;;;13.96;100.00;99161.97;5055229;28;45365;-76
2023/05/10 00:10:48;;;;;;;;;1.20;0.20;;;;;13.91;100.00;99164.00;5056421;28;46678;-76
2023/05/10 00:13:14;;;;;;;;;1.50;1.50;;;;;13.85;100.00;99164.34;5056532;28;45259;-76
2023/05/10 00:15:40;;;;;;;;;0.80;0.80;;;;;13.79;100.00;99146.97;5032238;28;45511;-76
2023/05/10 00:18:06;;;;;;;;;2.00;2.00;;;;;13.79;100.00;99143.47;5049022;28;45443;-76
2023/05/10 00:20:32;;;;;;;;;0.40;0.40;;;;;13.82;100.00;99165.38;5036282;28;45701;-76
2023/05/10 00:22:57;;;;;;;;;1.75;1.00;;;;;13.83;100.00;99168.88;5048590;28;45428;-76
2023/05/10 00:25:23;;;;;;;;;2.00;2.00;;;;;13.84;100.00;99165.28;5015232;28;45414;-76
2023/05/10 00:27:49;;;;;;;;;1.25;1.25;;;;;13.85;100.00;99173.16;5048650;28;45481;-76
2023/05/10 00:30:15;;;;;;;;;3.00;2.00;;;;;13.89;100.00;99169.41;5024603;28;48349;-77
2023/05/10 00:32:40;;;;;;;;;2.75;2.75;;;;;13.89;100.00;99176.50;5042674;28;45425;-77
2023/05/10 00:35:06;;;;;;;;;2.00;2.00;;;;;13.87;100.00;99179.25;5048241;28;45346;-76
2023/05/10 00:37:31;;;;;;;;;1.00;0.00;;;;;13.87;100.00;99181.88;5035972;28;45248;-77
2023/05/10 00:39:57;;;;;;;;;2.00;2.00;;;;;13.90;100.00;99181.72;5055728;28;46088;-77
2023/05/10 00:42:23;;;;;;;;;0.25;0.25;;;;;13.93;100.00;99189.50;5037864;28;45346;-77
2023/05/10 00:44:49;;;;;;;;;2.00;1.40;;;;;14.01;100.00;99186.47;5037933;28;45447;-77
2023/05/10 00:47:15;;;;;;;;;4.00;3.75;;;;;14.09;100.00;99188.69;5024955;28;45520;-77
2023/05/10 00:49:41;;;;;;;;;1.80;1.80;;;;;14.11;100.00;99187.66;5055296;28;45476;-77
2023/05/10 00:52:07;;;;;;;;;4.75;4.75;;;;;14.12;100.00;99193.81;5056310;28;45486;-77
2023/05/10 00:54:32;;;;;;;;;2.00;2.00;;;;;14.07;100.00;99195.88;5056038;28;45603;-77
2023/05/10 00:56:58;;;;;;;;;4.00;2.00;;;;;13.99;100.00;99188.31;5037733;28;45433;-77
2023/05/10 00:59:24;;;;;;;;;3.00;3.00;;;;;13.90;100.00;99179.09;5017641;28;47423;-77
2023/05/10 01:01:51;;;;;;;;;2.25;1.25;;;;;13.83;100.00;99182.97;5043228;28;45362;-77
2023/05/10 01:04:16;;;;;;;;;1.00;1.00;;;;;13.77;100.00;99188.59;5053327;28;45427;-77
2023/05/10 01:06:42;;;;;;;;;1.00;1.00;;;;;13.65;100.00;99173.34;5043341;28;45346;-77
2023/05/10 01:09:08;;;;;;;;;1.00;1.00;;;;;13.57;100.00;99176.38;5036269;28;48147;-77
2023/05/10 01:11:37;;;;;;;;;2.50;2.25;;;;;13.51;100.00;99174.06;5055486;28;45365;-77
2023/05/10 01:14:03;;;;;;;;;0.60;0.60;;;;;13.45;100.00;99176.13;5042038;28;45486;-77
2023/05/10 01:16:36;;;;;;;;;2.00;1.20;;;;;13.38;100.00;99180.06;5042706;28;45535;-77
2023/05/10 01:19:01;;;;;;;;;3.00;3.00;;;;;13.30;100.00;99161.88;5038496;28;46498;-77
2023/05/10 01:22:00;;;;;;;;;2.50;1.00;;;;;13.25;100.00;99170.06;5055368;28;45371;-77
2023/05/10 01:24:50;;;;;;;;;2.80;2.80;;;;;13.22;100.00;99167.59;5037387;28;45414;-77
2023/05/10 01:28:01;;;;;;;;;4.00;4.00;;;;;13.22;100.00;99170.25;5047368;28;45463;-78
2023/05/10 01:30:29;;;;;;;;;1.40;1.40;;;;;13.20;100.00;99165.94;4950041;28;48542;-77
2023/05/10 01:33:08;;;;;;;;;3.80;3.00;;;;;13.18;100.00;99168.66;4951163;28;45444;-78
2023/05/10 01:35:45;;;;;;;;;1.00;1.00;;;;;13.17;100.00;99164.31;5039113;28;45445;-78
2023/05/10 01:38:37;;;;;;;;;1.00;1.00;;;;;13.18;100.00;99162.50;5054033;28;45369;-78
2023/05/10 01:41:16;;;;;;;;;2.60;1.60;;;;;13.18;100.00;99160.72;5037343;28;47372;-78
2023/05/10 01:44:27;;;;;;;;;4.00;2.00;;;;;13.19;100.00;99159.78;5027703;28;45434;-78
2023/05/10 01:47:07;;;;;;;;;1.80;1.80;;;;;13.18;100.00;99160.72;5015056;28;45382;-78
2023/05/10 01:49:40;;;;;;;;;1.00;1.00;;;;;13.22;100.00;99170.25;5019451;28;45418;-78
2023/05/10 01:52:12;;;;;;;;;1.00;1.00;;;;;13.26;100.00;99176.22;5034868;28;45403;-78
2023/05/10 01:54:44;;;;;;;;;1.60;1.60;;;;;13.30;100.00;99185.72;5054336;28;45417;-78
2023/05/10 01:57:13;;;;;;;;;1.00;1.00;;;;;13.31;100.00;99183.94;5023497;28;45504;-78
2023/05/10 01:59:44;;;;;;;;;1.00;1.00;;;;;13.28;100.00;99183.16;5016972;28;45575;-79
2023/05/10 02:02:12;;;;;;;;;1.00;1.00;;;;;13.26;100.00;99179.72;5049419;28;46353;-78
2023/05/10 02:04:39;;;;;;;;;1.00;1.00;;;;;13.24;100.00;99183.38;5036108;28;45492;-79
2023/05/10 02:07:06;;;;;;;;;1.00;1.00;;;;;13.21;100.00;99183.53;5036928;28;45465;-78
2023/05/10 02:09:34;;;;;;;;;1.00;1.00;;;;;13.20;100.00;99184.47;5019992;28;45393;-78
2023/05/10 02:12:03;;;;;;;;;1.80;1.00;;;;;13.17;100.00;99182.84;5051671;28;46518;-79
2023/05/10 02:14:33;;;;;;;;;1.40;1.40;;;;;13.15;100.00;99181.19;5027065;28;45392;-79
2023/05/10 02:17:01;;;;;;;;;1.00;1.00;;;;;13.13;100.00;99175.94;5040827;28;45437;-79
2023/05/10 02:19:28;;;;;;;;;2.00;2.00;;;;;13.13;100.00;99178.59;5045852;28;45476;-79
2023/05/10 02:21:57;;;;;;;;;1.00;1.00;;;;;13.10;100.00;99175.22;5041170;28;46307;-79
2023/05/10 02:24:25;;;;;;;;;1.00;1.00;;;;;13.08;100.00;99171.78;5037206;28;45313;-79
2023/05/10 02:26:57;;;;;;;;;1.00;1.00;;;;;13.09;100.00;99161.13;5031420;28;45385;-79
2023/05/10 02:29:25;;;;;;;;;2.00;1.00;;;;;13.10;100.00;99168.13;5029579;28;45385;-79
2023/05/10 02:31:53;;;;;;;;;0.75;0.75;;;;;13.10;100.00;99165.50;5029714;28;45603;-79
2023/05/10 02:34:21;;;;;;;;;1.00;1.00;;;;;13.09;100.00;99161.13;5034463;28;45502;-79
2023/05/10 02:36:47;;;;;;;;;0.00;0.00;;;;;13.10;100.00;99162.84;5047925;28;45352;-79
2023/05/10 02:39:15;;;;;;;;;0.80;0.80;;;;;13.10;100.00;99159.34;5030015;28;45413;-79
2023/05/10 02:41:42;;;;;;;;;0.80;0.80;;;;;13.10;100.00;99148.75;4990898;28;45615;-80
2023/05/10 02:44:09;;;;;;;;;1.00;1.00;;;;;13.12;100.00;99147.75;5047933;28;45412;-79
2023/05/10 02:46:36;;;;;;;;;1.80;1.00;;;;;13.16;100.00;99157.28;5042215;28;45405;-80
2023/05/10 02:49:02;;;;;;;;;0.75;0.75;;;;;13.24;100.00;99148.94;5023488;28;45505;-79
2023/05/10 02:51:31;;;;;;;;;1.00;1.00;;;;;13.31;100.00;99150.38;5031919;28;45455;-80
2023/05/10 02:54:01;;;;;;;;;0.40;0.40;;;;;13.38;100.00;99150.94;5016975;28;45421;-79
2023/05/10 02:56:35;;;;;;;;;0.00;0.00;;;;;13.39;100.00;99164.09;5045453;28;45314;-80
2023/05/10 02:59:01;;;;;;;;;1.00;0.00;;;;;13.34;100.00;99147.56;5044488;28;45358;-80
2023/05/10 03:01:26;;;;;;;;;0.00;0.00;;;;;13.33;100.00;99151.16;5018604;28;46886;-80
2023/05/10 03:03:52;;;;;;;;;0.00;0.00;;;;;13.37;100.00;99149.22;5023858;28;45487;-80
2023/05/10 03:06:17;;;;;;;;;0.00;0.00;;;;;13.41;100.00;99151.59;5030923;28;45703;-80
2023/05/10 03:08:44;;;;;;;;;0.00;0.00;;;;;13.45;100.00;99150.50;5035180;28;45590;-80
2023/05/10 03:12:01;;;;;;;;;0.40;0.40;;;;;13.50;100.00;99156.44;5058799;28;45423;-80
2023/05/10 03:14:53;;;;;;;;;0.00;0.00;;;;;13.57;100.00;99141.09;4976723;28;45444;-80
2023/05/10 03:17:39;;;;;;;;;0.00;0.00;;;;;13.61;100.00;99145.28;5022195;28;45404;-80
2023/05/10 03:20:27;;;;;;;;;0.00;0.00;;;;;13.65;100.00;99145.97;5050072;28;45425;-80
2023/05/10 03:23:04;;;;;;;;;0.00;0.00;;;;;13.64;100.00;99179.56;5030619;28;46267;-80
2023/05/10 03:25:31;;;;;;;;;0.00;0.00;;;;;13.62;100.00;99154.94;5043248;28;45326;-80
2023/05/10 03:27:59;;;;;;;;;0.00;0.00;;;;;13.57;100.00;99163.13;5043867;28;45382;-80
2023/05/10 03:30:25;;;;;;;;;0.00;0.00;;;;;13.52;100.00;99183.72;5045742;28;45633;-80
2023/05/10 03:32:51;;;;;;;;;0.00;0.00;;;;;13.45;100.00;99177.00;5028952;28;46018;-80
2023/05/10 03:35:16;;;;;;;;;0.00;0.00;;;;;13.37;100.00;99162.44;5044139;28;45409;-80
2023/05/10 03:37:41;;;;;;;;;0.00;0.00;;;;;13.33;100.00;99156.44;5025581;28;45425;-80
2023/05/10 03:40:08;;;;;;;;;0.00;0.00;;;;;13.33;100.00;99164.38;5026155;28;45351;-80
2023/05/10 03:42:34;;;;;;;;;0.00;0.00;;;;;13.33;100.00;99158.25;5022224;28;47606;-80
2023/05/10 03:45:00;;;;;;;;;0.80;0.80;;;;;13.30;100.00;99139.84;5044404;28;45362;-80
2023/05/10 03:47:25;;;;;;;;;0.00;0.00;;;;;13.28;100.00;99172.56;5023780;28;45394;-80
2023/05/10 03:49:51;;;;;;;;;0.00;0.00;;;;;13.29;100.00;99152.22;5028927;28;45500;-81
2023/05/10 03:52:16;;;;;;;;;0.50;0.00;;;;;13.34;100.00;99141.41;5023962;28;46161;-80
2023/05/10 03:54:43;;;;;;;;;2.00;0.60;;;;;13.33;100.00;99150.28;5026830;28;45551;-80
2023/05/10 03:57:09;;;;;;;;;0.40;0.40;;;;;13.26;100.00;99149.72;5024264;28;45501;-80
2023/05/10 03:59:35;;;;;;;;;0.00;0.00;;;;;13.20;100.00;99153.56;5032076;28;45552;-80
2023/05/10 04:02:00;;;;;;;;;1.00;1.00;;;;;13.18;100.00;99170.47;5040457;28;46560;-80
2023/05/10 04:04:27;;;;;;;;;0.00;0.00;;;;;13.16;100.00;99159.09;5041058;28;45476;-81
2023/05/10 04:06:52;;;;;;;;;0.40;0.40;;;;;13.11;100.00;99164.56;5037468;28;45492;-81
2023/05/10 04:09:18;;;;;;;;;0.00;0.00;;;;;13.09;100.00;99166.44;5030833;28;45432;-81
2023/05/10 04:11:43;;;;;;;;;2.00;2.00;;;;;13.05;100.00;99170.19;5028431;28;48602;-81
2023/05/10 04:14:09;;;;;;;;;2.50;1.00;;;;;13.03;100.00;99172.03;5056510;28;45394;-81
2023/05/10 04:16:35;;;;;;;;;0.00;0.00;;;;;13.02;100.00;99177.41;5022806;28;45459;-79
2023/05/10 04:19:01;;;;;;;;;1.00;0.00;;;;;13.05;100.00;99175.47;5038156;28;45529;-69
2023/05/10 04:21:27;;;;;;;;;0.00;0.00;;;;;13.08;100.00;99171.78;5055640;28;45400;-69
2023/05/10 04:23:52;;;;;;;;;1.00;1.00;;;;;13.07;100.00;99184.16;5055464;28;45418;-69
2023/05/10 04:26:18;;;;;;;;;1.00;1.00;;;;;13.05;100.00;99188.72;5038663;28;45480;-69
2023/05/10 04:28:44;;;;;;;;;0.00;0.00;;;;;13.03;100.00;99192.34;5048673;28;45344;-68
2023/05/10 04:31:10;;;;;;;;;0.00;0.00;;;;;12.98;100.00;99199.66;5048337;28;45549;-68
2023/05/10 04:33:36;;;;;;;;;0.50;0.50;;;;;12.89;100.00;99248.59;5054414;28;45411;-69
2023/05/10 04:36:02;;;;;;;;;0.00;0.00;;;;;12.78;100.00;99211.19;5053685;28;45523;-69
2023/05/10 04:38:28;;;;;;;;;0.00;0.00;;;;;12.65;100.00;99210.91;5053032;28;45674;-69
2023/05/10 04:40:54;;;;;;;;;0.75;0.75;;;;;12.52;100.00;99223.00;5024462;28;48277;-68
2023/05/10 04:43:20;;;;;;;;;1.00;0.00;;;;;12.41;100.00;99196.19;5049686;28;45355;-68
2023/05/10 04:45:46;;;;;;;;;0.00;0.00;;;;;12.30;100.00;99206.41;5042304;28;45466;-68
2023/05/10 04:48:11;;;;;;;;;0.00;0.00;;;;;12.20;100.00;99193.63;5054189;28;45383;-68
2023/05/10 04:50:37;;;;;;;;;1.50;0.00;;;;;12.15;100.00;99215.88;5031084;28;47793;-69
2023/05/10 04:53:02;;;;;;;;;1.00;1.00;;;;;12.11;100.00;99204.59;5040857;28;45377;-69
2023/05/10 04:55:27;;;;;;;;;0.00;0.00;;;;;12.09;100.00;99221.44;5034898;28;45502;-67
2023/05/10 04:57:56;;;;;;;;;1.50;1.50;;;;;12.08;100.00;99228.50;5017565;28;45788;-67
2023/05/10 05:00:22;;;;;;;;;1.00;1.00;;;;;12.06;100.00;99211.03;5048121;28;45601;-67
2023/05/10 05:02:47;;;;;;;;;0.50;0.50;;;;;12.05;100.00;99199.59;5040854;28;45426;-67
2023/05/10 05:05:13;;;;;;;;;2.00;1.00;;;;;12.06;100.00;99206.59;5038458;28;45718;-67
2023/05/10 05:07:38;;;;;;;;;1.00;1.00;;;;;12.10;100.00;99204.66;5053323;28;45365;-67
2023/05/10 05:10:06;;;;;;;;;1.00;0.00;;;;;12.10;100.00;99207.31;5032232;28;45545;-67
2023/05/10 05:12:31;;;;;;;;;1.80;1.00;;;;;12.09;100.00;99232.00;5040788;28;45367;-67
2023/05/10 05:14:57;;;;;;;;;1.00;1.00;;;;;12.08;100.00;99210.00;5028520;28;45454;-67
2023/05/10 05:17:22;;;;;;;;;0.25;0.25;;;;;12.09;100.00;99221.44;5050458;28;45571;-67
2023/05/10 05:19:47;;;;;;;;;0.00;0.00;;;;;12.07;100.00;99213.56;5047558;28;45818;-67
2023/05/10 05:22:13;;;;;;;;;1.75;1.00;;;;;12.07;100.00;99218.88;5018418;28;45432;-67
2023/05/10 05:24:38;;;;;;;;;0.75;0.75;;;;;12.10;100.00;99215.22;5053045;28;45820;-67
2023/05/10 05:27:04;;;;;;;;;1.00;1.00;;;;;12.12;100.00;99208.94;5028919;28;45727;-67
2023/05/10 05:29:30;;;;;;;;;1.50;1.50;;;;;12.13;100.00;99213.31;5047771;28;46242;-67
2023/05/10 05:31:55;;;;;;;;;0.00;0.00;;;;;12.15;100.00;99213.25;5051517;28;45497;-67
2023/05/10 05:34:21;;;;;;;;;1.75;1.00;;;;;12.21;100.00;99231.50;5053514;28;45452;-67
2023/05/10 05:36:46;;;;;;;;;1.25;1.00;;;;;12.24;100.00;99239.25;5053447;28;45362;-67
2023/05/10 05:39:12;;;;;;;;;1.00;1.00;;;;;12.27;100.00;99225.03;5034973;28;47056;-68
2023/05/10 05:41:37;;;;;;;;;1.00;1.00;;;;;12.29;100.00;99224.06;5052895;28;45445;-68
2023/05/10 05:44:03;;;;;;;;;1.75;1.00;;;;;12.30;100.00;99232.84;5052937;28;45423;-68
2023/05/10 05:46:28;;;;;;;;;0.50;0.50;;;;;12.33;100.00;99232.72;5022133;28;45644;-69
2023/05/10 05:48:53;;;;;;;;;1.50;1.00;;;;;12.36;100.00;99233.44;5053008;28;45580;-68
2023/05/10 05:51:19;;;;;;;;;0.00;0.00;;;;;12.39;100.00;99277.38;5053049;28;45460;-69
2023/05/10 05:53:45;;;;;;;;;2.00;0.00;;;;;12.46;100.00;99220.63;5034810;28;45498;-68
2023/05/10 05:56:10;;;;;;;;;2.00;0.00;;;;;12.53;100.00;99238.81;5052469;28;45489;-68
2023/05/10 05:58:35;;;;;;;;;1.00;1.00;;;;;12.60;100.00;99223.50;5052394;28;45755;-68
2023/05/10 06:01:01;;;;;;;;;0.00;0.00;;;;;12.66;100.00;99259.38;5047575;28;45401;-68
2023/05/10 06:03:26;;;;;;;;;1.00;0.50;;;;;12.71;100.00;99238.88;5045474;28;45301;-68
2023/05/10 06:05:51;;;;;;;;;0.25;0.25;;;;;12.73;100.00;99256.41;5053048;28;45559;-68
2023/05/10 06:08:17;;;;;;;;;1.00;1.00;;;;;12.77;100.00;99265.88;5035104;28;46531;-68
2023/05/10 06:10:42;;;;;;;;;1.00;1.00;;;;;12.77;100.00;99230.63;5034583;28;45418;-68
2023/05/10 06:13:08;;;;;;;;;1.00;1.00;;;;;12.75;100.00;99233.34;5053178;28;45383;-68
2023/05/10 06:15:34;;;;;;;;;2.50;1.25;;;;;12.77;100.00;99241.22;5052526;28;45299;-69
2023/05/10 06:17:59;;;;;;;;;1.00;0.20;;;;;12.76;100.00;99273.91;5044632;28;45495;-68
2023/05/10 06:20:25;;;;;;;;;1.00;1.00;;;;;12.77;100.00;99230.63;5045820;28;45468;-69
2023/05/10 06:22:50;;;;;;;;;1.25;0.25;;;;;12.79;100.00;99239.38;5045282;28;45434;-68
2023/05/10 06:25:17;;;;;;;;;1.00;1.00;;;;;12.75;100.00;99258.94;5032873;28;45445;-69
2023/05/10 06:27:43;;;;;;;;;1.00;1.00;;;;;12.73;100.00;99244.97;5045065;28;45601;-69
2023/05/10 06:30:09;;;;;;;;;0.00;0.00;;;;;12.72;100.00;99257.34;5043042;28;45580;-69
2023/05/10 06:32:35;;;;;;;;;1.00;1.00;;;;;12.67;100.00;99245.25;5034514;28;45461;-69
2023/05/10 06:35:00;;;;;;;;;1.00;0.50;;;;;12.68;100.00;99260.19;5035144;28;45587;-69
2023/05/10 06:37:25;;;;;;;;;1.50;0.00;;;;;12.65;100.00;99265.59;5052833;28;47741;-70
2023/05/10 06:39:51;;;;;;;;;1.75;1.75;;;;;12.64;100.00;99312.34;5043818;28;45360;-69
2023/05/10 06:42:16;;;;;;;;;1.25;1.25;;;;;12.66;100.00;99280.56;5053134;28;45411;-70
2023/05/10 06:44:41;;;;;;;;;1.00;1.00;;;;;12.67;100.00;99272.53;5034980;28;45547;-69
2023/05/10 06:47:07;;;;;;;;;2.00;1.00;;;;;12.65;100.00;99284.97;5052926;28;45642;-70
2023/05/10 06:49:32;;;;;;;;;2.75;1.25;;;;;12.64;100.00;99285.06;5047631;28;45364;-69
2023/05/10 06:51:58;;;;;;;;;3.25;1.75;;;;;12.58;100.00;99316.13;5044184;28;45329;-69
2023/05/10 06:54:23;;;;;;;;;2.00;2.00;;;;;12.60;100.00;99292.25;5052588;28;45417;-69
2023/05/10 06:56:49;;;;;;;;;1.00;1.00;;;;;12.56;100.00;99304.78;5052238;28;46267;-69
2023/05/10 06:59:16;;;;;;;;;1.50;1.00;;;;;12.64;100.00;99292.97;5053219;28;45552;-69
2023/05/10 07:01:41;;;;;;;;;1.25;1.00;;;;;12.62;100.00;99322.16;5041370;28;45577;-69
2023/05/10 07:04:07;;;;;;;;;1.00;1.00;;;;;12.64;100.00;99282.41;5028068;28;45602;-69
2023/05/10 07:06:33;;;;;;;;;1.50;1.00;;;;;12.68;100.00;99281.34;5042368;28;45528;-69
2023/05/10 07:08:59;;;;;;;;;2.00;0.50;;;;;12.70;100.00;99301.50;5052560;28;45443;-69
2023/05/10 07:11:24;;;;;;;;;3.50;2.75;;;;;12.70;100.00;99300.66;5053086;28;45413;-69
2023/05/10 07:13:49;;;;;;;;;2.00;1.00;;;;;12.67;100.00;99277.84;5052609;28;45358;-69
2023/05/10 07:16:15;;;;;;;;;3.00;1.00;;;;;12.69;100.00;99312.16;5052315;28;46585;-69
2023/05/10 07:18:40;;;;;;;;;3.00;2.25;;;;;12.73;100.00;99290.78;5043255;28;45322;-70
2023/05/10 07:21:06;;;;;;;;;3.00;3.00;;;;;12.75;100.00;99317.16;5052720;28;45305;-69
2023/05/10 07:23:31;;;;;;;;;2.00;1.00;;;;;12.77;100.00;99355.84;5052843;28;45419;-69
2023/05/10 07:25:57;;;;;;;;;1.00;1.00;;;;;12.81;100.00;99307.16;5052085;28;46258;-69
2023/05/10 07:28:23;;;;;;;;;1.00;1.00;;;;;12.83;100.00;99309.72;5052566;28;45390;-69
2023/05/10 07:30:48;;;;;;;;;0.00;0.00;;;;;12.88;99.77;99310.38;5034243;28;45421;-69
2023/05/10 07:33:14;;;;;;;;;2.00;2.00;;;;;12.89;100.00;99318.25;5033838;28;45394;-69
2023/05/10 07:35:40;;;;;;;;;2.20;2.20;;;;;12.92;100.00;99299.56;5053902;28;45387;-69
2023/05/10 07:38:05;;;;;;;;;2.75;2.00;;;;;12.94;100.00;99348.00;5056633;28;45631;-70
2023/05/10 07:40:31;;;;;;;;;2.00;2.00;;;;;13.00;100.00;99311.59;5056762;28;45418;-70
2023/05/10 07:42:56;;;;;;;;;2.00;0.50;;;;;12.99;97.66;99320.47;5055550;28;45468;-69
2023/05/10 07:45:23;;;;;;;;;1.75;1.75;;;;;13.01;100.00;99324.75;5056026;28;45588;-67
2023/05/10 07:47:49;;;;;;;;;1.00;1.00;;;;;13.05;100.00;99313.09;5041940;28;45425;-68
2023/05/10 07:50:14;;;;;;;;;2.00;2.00;;;;;13.08;92.83;99328.81;5055778;28;45469;-67
2023/05/10 07:52:39;;;;;;;;;2.00;1.00;;;;;13.17;97.24;99315.19;5055546;28;45517;-69
2023/05/10 07:55:07;;;;;;;;;3.00;1.75;;;;;13.23;81.26;99320.22;5055048;28;46622;-69
2023/05/10 07:57:33;;;;;;;;;4.00;3.00;;;;;13.29;80.42;99329.63;5055048;28;45400;-68
2023/05/10 07:59:58;;;;;;;;;3.25;2.25;;;;;13.32;78.78;99318.91;5045149;28;45386;-69
2023/05/10 08:02:24;;;;;;;;;1.75;1.00;;;;;13.39;77.62;99343.31;5038317;28;45476;-69
2023/05/10 08:04:49;;;;;;;;;2.00;2.00;;;;;13.43;76.98;99308.63;5045446;28;46499;-69
2023/05/10 08:07:14;;;;;;;;;0.75;0.75;;;;;13.48;74.50;99305.78;5048833;28;45395;-69
2023/05/10 08:09:41;;;;;;;;;2.00;1.50;;;;;13.48;76.41;99313.72;5016875;28;45838;-69
2023/05/10 08:12:07;;;;;;;;;2.25;2.00;;;;;13.46;74.75;99312.94;5050769;28;45511;-69
2023/05/10 08:14:32;;;;;;;;;2.00;1.00;;;;;13.47;77.78;99280.22;5036976;28;47495;-69
2023/05/10 08:16:57;;;;;;;;;2.00;2.00;;;;;13.50;77.50;99301.25;5036667;28;45332;-69
2023/05/10 08:19:23;;;;;;;;;2.50;1.50;;;;;13.52;75.87;99292.31;5045986;28;45357;-69
2023/05/10 08:21:49;;;;;;;;;3.50;1.50;;;;;13.55;77.85;99310.72;5055013;28;45388;-69
2023/05/10 08:24:14;;;;;;;;;8.00;2.50;;;;;13.60;78.39;99305.16;5054866;28;45523;-69
2023/05/10 08:26:40;;;;;;;;;3.00;2.00;;;;;13.62;75.48;99293.56;5054638;28;45421;-69
2023/05/10 08:29:05;;;;;;;;;3.00;2.75;;;;;13.67;75.88;99295.13;5055044;28;45324;-69
2023/05/10 08:31:31;;;;;;;;;3.00;3.00;;;;;13.73;76.08;99273.63;5050962;28;45449;-69
2023/05/10 08:33:56;;;;;;;;;3.00;2.00;;;;;13.79;72.49;99291.84;5042907;28;45357;-69
2023/05/10 08:36:24;;;;;;;;;2.00;2.00;;;;;13.83;72.06;99299.56;5055002;28;45349;-69
2023/05/10 08:38:53;;;;;;;;;2.40;2.40;;;;;13.88;71.81;99288.75;5055583;28;45453;-69
2023/05/10 08:41:26;;;;;;;;;3.25;3.25;;;;;13.95;73.13;99288.34;5054622;28;45604;-69
2023/05/10 08:43:54;;;;;;;;;1.00;1.00;;;;;14.07;71.63;99291.31;5054784;28;45451;-69
2023/05/10 08:46:21;;;;;;;;;2.80;2.00;;;;;14.13;70.14;99312.19;5054453;28;45394;-69
2023/05/10 08:48:49;;;;;;;;;1.00;1.00;;;;;14.15;68.73;99311.19;5054236;28;45371;-69
2023/05/10 08:51:26;;;;;;;;;2.50;2.25;;;;;14.21;70.01;99308.22;5054920;28;45516;-69
2023/05/10 08:53:52;;;;;;;;;2.00;2.00;;;;;14.27;70.21;99299.06;5054793;28;46290;-69
2023/05/10 08:56:18;;;;;;;;;2.75;2.75;;;;;14.31;69.40;99298.84;5054795;28;45783;-69
2023/05/10 08:58:43;;;;;;;;;3.50;2.50;;;;;14.35;67.68;99304.00;5036502;28;45472;-69
2023/05/10 09:01:10;;;;;;;;;2.00;2.00;;;;;14.36;66.29;99303.06;5047381;28;45415;-69
2023/05/10 09:03:38;;;;;;;;;2.20;2.00;;;;;14.40;65.78;99305.50;5048455;28;47339;-69
2023/05/10 09:06:03;;;;;;;;;2.40;2.00;;;;;14.46;64.26;99296.34;5054468;28;45346;-69
2023/05/10 09:08:30;;;;;;;;;3.75;2.75;;;;;14.48;65.03;99305.09;5054952;28;45321;-69
2023/05/10 09:10:58;;;;;;;;;4.00;2.00;;;;;14.48;64.49;99313.06;5054891;28;45535;-69
2023/05/10 09:13:24;;;;;;;;;3.00;2.00;;;;;14.44;63.31;99333.56;5054216;28;46568;-69
2023/05/10 09:15:51;;;;;;;;;2.80;2.00;;;;;14.40;63.76;99305.50;5036269;28;45442;-69
2023/05/10 09:18:16;;;;;;;;;2.25;2.25;;;;;14.39;62.41;99316.16;5045086;28;45430;-69
2023/05/10 09:20:42;;;;;;;;;0.00;0.00;;;;;14.41;63.99;99309.84;5036413;28;45409;-69
2023/05/10 09:23:08;;;;;;;;;2.00;1.00;;;;;14.45;61.56;99314.06;5036100;28;45515;-69
2023/05/10 09:25:35;;;;;;;;;2.00;1.00;;;;;14.51;61.00;99340.28;5054374;28;45525;-69
2023/05/10 09:28:01;;;;;;;;;2.00;2.00;;;;;14.59;61.65;99313.31;5054858;28;45461;-69
2023/05/10 09:30:30;;;;;;;;;2.75;2.75;;;;;14.68;61.82;99334.09;5028262;28;46095;-69
2023/05/10 09:32:57;;;;;;;;;4.00;3.00;;;;;14.74;60.90;99324.94;5048257;28;46577;-70
2023/05/10 09:35:25;;;;;;;;;3.40;3.00;;;;;14.74;62.91;99311.69;5053038;28;45420;-68
2023/05/10 09:37:55;;;;;;;;;2.00;2.00;;;;;14.76;60.54;99323.03;5054167;28;45424;-68
2023/05/10 09:40:25;;;;;;;;;2.00;2.00;;;;;14.77;60.44;99312.34;5054024;28;45496;-68
2023/05/10 09:43:02;;;;;;;;;3.00;2.00;;;;;14.83;59.31;99311.16;5053671;28;45530;-68
2023/05/10 09:45:29;;;;;;;;;2.80;2.40;;;;;14.83;59.28;99306.72;5023716;28;45480;-69
2023/05/10 09:47:56;;;;;;;;;2.00;2.00;;;;;14.86;60.58;99298.59;5037870;28;45437;-68
2023/05/10 09:50:22;;;;;;;;;2.00;2.00;;;;;14.90;58.79;99312.56;5052968;28;45449;-70
2023/05/10 09:52:52;;;;;;;;;4.25;3.00;;;;;14.90;59.69;99294.84;5053487;28;46259;-67
2023/05/10 09:55:20;;;;;;;;;2.40;1.00;;;;;14.90;57.56;99309.91;5053617;28;45497;-70
2023/05/10 09:57:48;;;;;;;;;1.20;1.20;;;;;14.94;58.55;99322.03;5053652;28;45419;-71
2023/05/10 10:00:20;;;;;;;;;2.00;2.00;;;;;14.98;56.78;99303.22;5052728;28;45380;-68
2023/05/10 10:02:47;;;;;;;;;1.40;0.80;;;;;15.06;56.81;99305.47;5027095;28;45505;-68
2023/05/10 10:05:13;;;;;;;;;3.00;1.00;;;;;15.16;53.98;99309.31;5053786;28;45342;-68
2023/05/10 10:07:39;;;;;;;;;3.00;2.00;;;;;15.27;55.87;99303.38;5028913;28;45493;-68
2023/05/10 10:10:05;;;;;;;;;2.00;2.00;;;;;15.36;56.03;99313.50;5047713;28;45522;-69
2023/05/10 10:12:31;;;;;;;;;1.40;1.40;;;;;15.44;55.44;99305.09;5053766;28;45456;-70
2023/05/10 10:14:58;;;;;;;;;1.00;1.00;;;;;15.46;55.04;99314.69;5053419;28;45387;-70
2023/05/10 10:17:27;;;;;;;;;2.40;1.20;;;;;15.49;56.11;99303.03;5028292;28;45377;-68
2023/05/10 10:19:54;;;;;;;;;2.25;2.25;;;;;15.49;55.76;99287.09;5047361;28;45460;-68
2023/05/10 10:22:20;;;;;;;;;1.80;1.80;;;;;15.50;56.54;99297.63;5052950;28;46067;-68
2023/05/10 10:24:45;;;;;;;;;2.00;2.00;;;;;15.53;56.63;99288.63;5053119;28;45462;-69
2023/05/10 10:27:26;;;;;;;;;2.75;2.50;;;;;15.59;58.38;99294.47;5053651;28;45428;-69
2023/05/10 10:29:52;;;;;;;;;1.00;1.00;;;;;15.64;53.90;99318.13;5053177;28;45349;-69
2023/05/10 10:32:33;;;;;;;;;4.25;2.75;;;;;15.68;54.24;99295.75;5042981;28;46707;-69
2023/05/10 10:34:59;;;;;;;;;1.80;1.80;;;;;15.69;54.25;99298.31;5051023;28;45515;-69
2023/05/10 10:37:43;;;;;;;;;1.00;0.80;;;;;15.79;54.22;99287.13;5042259;28;45448;-69
2023/05/10 10:40:31;;;;;;;;;2.00;2.00;;;;;15.83;50.38;99300.16;5021869;28;45557;-69
2023/05/10 10:42:57;;;;;;;;;2.00;1.00;;;;;15.84;50.00;99298.38;5035749;28;45348;-69
2023/05/10 10:45:24;;;;;;;;;0.25;0.25;;;;;15.84;50.07;99298.38;5053495;28;45491;-69
2023/05/10 10:48:25;;;;;;;;;3.40;1.60;;;;;15.82;50.87;99311.75;5052583;28;45417;-69
2023/05/10 10:50:57;;;;;;;;;1.20;1.20;;;;;15.84;49.65;99299.22;4951479;28;45495;-69
2023/05/10 10:53:26;;;;;;;;;0.20;0.00;;;;;15.91;49.72;99281.97;5036436;28;45692;-69
2023/05/10 10:56:06;;;;;;;;;1.20;1.20;;;;;16.01;50.02;99292.91;5052949;28;45351;-69
2023/05/10 10:58:32;;;;;;;;;4.00;3.00;;;;;16.05;49.94;99297.97;5053202;28;45404;-69
2023/05/10 11:01:15;;;;;;;;;1.40;1.00;;;;;16.12;48.81;99270.97;5029369;28;45671;-68
2023/05/10 11:03:55;;;;;;;;;0.80;0.60;;;;;16.19;49.41;99277.66;5029789;28;48255;-68
2023/05/10 11:06:34;;;;;;;;;1.20;1.20;;;;;16.21;49.84;99283.75;5042977;28;45598;-68
2023/05/10 11:09:11;;;;;;;;;1.60;1.60;;;;;16.24;49.42;99287.06;5037536;28;45349;-68
2023/05/10 11:11:50;;;;;;;;;1.40;1.40;;;;;16.32;49.89;99286.59;5053967;28;45524;-68
2023/05/10 11:14:20;;;;;;;;;1.60;1.60;;;;;16.43;50.58;99241.53;5056552;28;46340;-68
2023/05/10 11:16:45;;;;;;;;;1.80;1.80;;;;;16.57;46.58;99277.97;5055774;28;45426;-68
2023/05/10 11:19:13;;;;;;;;;2.50;1.50;;;;;16.68;47.96;99272.84;5046966;28;45870;-68
2023/05/10 11:21:49;;;;;;;;;1.00;1.00;;;;;16.73;49.92;99271.63;5042496;28;45340;-68
2023/05/10 11:24:21;;;;;;;;;0.80;0.80;;;;;16.79;51.62;99285.50;5038099;28;46183;-68
2023/05/10 11:26:50;;;;;;;;;0.80;0.80;;;;;16.67;51.86;99324.38;5056281;28;45418;-68
2023/05/10 11:29:16;;;;;;;;;1.20;1.20;;;;;16.50;53.45;99281.94;5038190;28;45468;-68
2023/05/10 11:31:47;;;;;;;;;1.20;0.80;;;;;16.36;54.47;99283.66;5055096;28;45526;-67